Terminal Aerodrome Forecast
Issued by NWS Pocatello, ID

Home | Current Version | Previous Version | Text Only | Print | Product List | Glossary On
Versions: 1 2 3 4 5 6 7 8 9 10 11 12
000
FTUS45 KPIH 042321
TAFBYI
TAF
KBYI 042321Z 0500/0524 VRB06KT P6SM VCTS SCT120 BKN150CB
     FM050300 24009KT P6SM VCSH SCT120 BKN150
     FM051600 26015G25KT P6SM VCTS SCT070 BKN100CB=

USA.gov is the U.S. government's official web portal to all federal, state and local government web resources and services.